Terminal Aerodrome Forecast
Issued by NWS Sioux Falls, SD

Home | Current Version | Previous Version | Graphics & Text | Print | Product List | Glossary On
Versions: 1 2 3 4 5 6 7 8 9 10 11 12 13 14 15 16 17 18 19 20 21 22 23
000
FTUS43 KFSD 302014 AAA
TAFFSD
TAF AMD
KFSD 302014Z 3020/0118 14018G25KT P6SM BKN015
      TEMPO 3020/3022 SCT016 BKN070
     FM302200 14018G25KT P6SM SCT015 BKN150
     FM010200 14014KT P6SM OVC012
     FM011600 18007KT P6SM SCT012 OVC090=

USA.gov is the U.S. government's official web portal to all federal, state and local government web resources and services.